Time;durP1;ratioP1;P1;durP2;ratioP2;P2;SDS_P1;SDS_P2;PMS_P1;PMS_P2;Temp;Humidity;BMP_temperature;BMP_pressure;BME280_temperature;BME280_humidity;BME280_pressure;Samples;Min_cycle;Max_cycle;Signal;HPM_P1;HPM_P2
2021/05/18 00:00:49;;;;;;;;;;;;;;;;;;;;;
2021/05/18 00:06:48;;;;;;;;;;;;;;;;;;;;;
2021/05/18 00:12:52;;;;;;;26.37;16.07;;;9.70;99.90;;;;;;6157081;23;20464;-84
2021/05/18 00:16:09;;;;;;;;;;;;;;;;;;;;;
2021/05/18 00:19:01;;;;;;;24.90;15.80;;;9.80;99.90;;;;;;6066240;23;20406;-84
2021/05/18 00:40:40;;;;;;;27.93;24.53;;;9.80;99.90;;;;;;6216178;22;20934;-83
2021/05/18 00:43:52;;;;;;;;;;;;;;;;;;;;;
2021/05/18 00:46:34;;;;;;;;;;;;;;;;;;;;;
2021/05/18 00:49:18;;;;;;;40.87;24.90;;;10.00;99.90;;;;;;6186893;23;20418;-82
2021/05/18 00:51:44;;;;;;;62.57;57.80;;;9.90;99.90;;;;;;6226961;23;20455;-81
2021/05/18 00:54:19;;;;;;;78.40;73.83;;;9.90;99.90;;;;;;6201365;23;20437;-82
2021/05/18 00:59:31;;;;;;;109.17;102.97;;;9.80;99.90;;;;;;6186304;23;20967;-82
2021/05/18 01:01:57;;;;;;;131.20;123.83;;;9.80;99.90;;;;;;6196331;23;20467;-81
2021/05/18 01:04:24;;;;;;;131.57;124.23;;;9.80;99.90;;;;;;6185199;23;20429;-81
2021/05/18 01:06:50;;;;;;;143.73;136.33;;;9.70;99.90;;;;;;6186388;23;20480;-81
2021/05/18 01:09:17;;;;;;;145.83;138.43;;;9.70;99.90;;;;;;6186582;23;20425;-81
2021/05/18 01:11:47;;;;;;;155.37;146.87;;;9.80;99.90;;;;;;6186316;23;20405;-81
2021/05/18 01:14:16;;;;;;;163.33;154.93;;;9.90;99.90;;;;;;6196595;23;20968;-81
2021/05/18 01:16:45;;;;;;;167.90;159.10;;;9.80;99.90;;;;;;6196556;23;20475;-81
2021/05/18 01:19:13;;;;;;;165.83;157.70;;;9.70;99.90;;;;;;6194813;23;20434;-82
2021/05/18 01:21:41;;;;;;;174.67;165.97;;;9.70;99.90;;;;;;6186621;23;20711;-81
2021/05/18 01:24:08;;;;;;;183.90;174.53;;;9.80;99.90;;;;;;6186153;23;20904;-81
2021/05/18 01:26:36;;;;;;;183.43;174.63;;;9.80;99.90;;;;;;6186106;23;20880;-81
2021/05/18 01:29:05;;;;;;;182.70;173.70;;;9.90;99.90;;;;;;6186165;23;21023;-81
2021/05/18 01:31:33;;;;;;;189.17;179.80;;;9.80;99.90;;;;;;6186468;23;20401;-81
2021/05/18 01:34:01;;;;;;;197.50;188.27;;;9.80;99.90;;;;;;6185008;23;20401;-81
2021/05/18 01:36:28;;;;;;;203.03;193.33;;;9.80;99.90;;;;;;6195907;23;20432;-81
2021/05/18 01:39:00;;;;;;;212.03;202.13;;;9.80;99.90;;;;;;6214357;23;20440;-81
2021/05/18 01:44:13;;;;;;;219.83;210.13;;;9.80;99.90;;;;;;6226241;23;20887;-81
2021/05/18 01:46:41;;;;;;;219.67;209.47;;;9.90;99.90;;;;;;6216066;23;20410;-81
2021/05/18 01:49:12;;;;;;;216.87;206.50;;;9.90;99.90;;;;;;6214943;23;20495;-81
2021/05/18 01:51:42;;;;;;;222.33;212.47;;;9.80;99.90;;;;;;6216264;23;20396;-82
2021/05/18 01:54:12;;;;;;;240.33;229.93;;;9.90;99.90;;;;;;6225863;23;20442;-82
2021/05/18 01:56:46;;;;;;;241.20;230.57;;;9.80;99.90;;;;;;6216400;23;20778;-82
2021/05/18 01:59:18;;;;;;;213.20;203.43;;;9.80;99.90;;;;;;6216169;23;20486;-81
2021/05/18 02:01:47;;;;;;;209.77;200.07;;;10.00;99.90;;;;;;6225881;23;20422;-81
2021/05/18 02:04:24;;;;;;;201.63;193.00;;;9.80;99.90;;;;;;6224243;23;20411;-81
2021/05/18 02:06:53;;;;;;;192.57;183.67;;;9.70;99.90;;;;;;6215861;23;20400;-81
2021/05/18 02:09:21;;;;;;;192.47;184.27;;;9.70;99.90;;;;;;6215743;23;20879;-81
2021/05/18 02:11:49;;;;;;;173.53;166.00;;;9.60;99.90;;;;;;6225773;23;20487;-81
2021/05/18 02:14:24;;;;;;;178.90;171.30;;;9.60;99.90;;;;;;6216111;23;20736;-82
2021/05/18 02:16:53;;;;;;;165.70;158.77;;;9.50;99.90;;;;;;6215929;23;20419;-81
2021/05/18 02:19:36;;;;;;;168.50;161.67;;;9.50;99.90;;;;;;6213904;23;20931;-83
2021/05/18 02:25:07;;;;;;;150.73;143.83;;;9.50;99.90;;;;;;6187234;22;21268;-83
2021/05/18 02:27:38;;;;;;;146.93;140.57;;;9.40;99.90;;;;;;6225530;23;20912;-83
2021/05/18 02:30:10;;;;;;;148.97;142.47;;;9.30;99.90;;;;;;6215935;23;20873;-82
2021/05/18 02:33:08;;;;;;;152.80;146.27;;;9.30;99.90;;;;;;6215888;23;20422;-82
2021/05/18 02:35:37;;;;;;;142.00;135.57;;;9.40;99.90;;;;;;6214268;23;20408;-83
2021/05/18 02:38:06;;;;;;;141.07;134.77;;;9.50;99.90;;;;;;6225432;23;20440;-82
2021/05/18 02:40:43;;;;;;;143.63;137.40;;;9.50;99.90;;;;;;6215850;23;20432;-82
2021/05/18 02:43:24;;;;;;;142.67;136.37;;;9.40;99.90;;;;;;6225824;23;20422;-82
2021/05/18 02:46:01;;;;;;;140.30;134.17;;;9.40;99.90;;;;;;6225280;23;20923;-82
2021/05/18 02:51:38;;;;;;;;;;;;;;;;;;;;;
2021/05/18 02:54:09;;;;;;;148.67;142.13;;;9.40;99.90;;;;;;6214707;23;20466;-83
2021/05/18 02:56:48;;;;;;;145.37;139.00;;;9.40;99.90;;;;;;6225296;23;20892;-82
2021/05/18 02:59:19;;;;;;;148.70;142.07;;;9.40;99.90;;;;;;6215688;23;20439;-81
2021/05/18 03:01:52;;;;;;;149.87;142.97;;;9.40;99.90;;;;;;6215695;23;20401;-82
2021/05/18 03:04:21;;;;;;;150.83;143.57;;;9.50;99.90;;;;;;6214259;23;20484;-81
2021/05/18 03:06:53;;;;;;;158.67;151.27;;;9.50;99.90;;;;;;6225648;23;20899;-81
2021/05/18 03:09:23;;;;;;;175.37;167.17;;;9.60;99.90;;;;;;6225612;23;20439;-81
2021/05/18 03:11:52;;;;;;;176.13;167.43;;;9.60;99.90;;;;;;6225447;23;20404;-81
2021/05/18 03:14:26;;;;;;;181.00;172.73;;;9.70;99.90;;;;;;6225403;23;20415;-81
2021/05/18 03:16:54;;;;;;;178.33;170.23;;;9.70;99.90;;;;;;6215749;23;20934;-81
2021/05/18 03:19:31;;;;;;;185.17;176.37;;;9.60;99.90;;;;;;6223644;23;20442;-81
2021/05/18 03:22:00;;;;;;;184.57;175.77;;;9.60;99.90;;;;;;6225377;23;20400;-82
2021/05/18 03:24:28;;;;;;;190.17;181.23;;;9.70;99.90;;;;;;6215531;23;20400;-81
2021/05/18 03:29:43;;;;;;;207.67;197.07;;;9.70;99.90;;;;;;6207488;23;20590;-80
2021/05/18 03:35:04;;;;;;;193.13;184.53;;;9.70;99.90;;;;;;6215943;23;20398;-81
2021/05/18 03:37:41;;;;;;;201.33;192.00;;;9.80;99.90;;;;;;6217646;23;20407;-82
2021/05/18 03:40:12;;;;;;;192.43;183.77;;;9.80;99.90;;;;;;6217292;23;20802;-83
2021/05/18 03:42:41;;;;;;;178.53;170.13;;;9.80;99.90;;;;;;6217488;23;20396;-83
2021/05/18 03:45:15;;;;;;;185.67;177.37;;;9.80;99.90;;;;;;6227200;23;20400;-83
2021/05/18 03:53:25;;;;;;;157.90;149.90;;;9.80;99.90;;;;;;6227125;23;20463;-81
2021/05/18 03:58:55;;;;;;;158.93;151.03;;;9.70;99.90;;;;;;6216989;23;20518;-82
2021/05/18 04:04:15;;;;;;;155.27;147.80;;;9.80;99.90;;;;;;6215625;23;20482;-81
2021/05/18 04:12:28;;;;;;;163.03;155.03;;;9.80;99.90;;;;;;6188621;23;20440;-80
2021/05/18 04:17:51;;;;;;;156.37;148.67;;;10.10;99.90;;;;;;6216813;23;20399;-81
2021/05/18 04:20:31;;;;;;;162.33;153.70;;;9.90;99.90;;;;;;6215658;23;20431;-83
2021/05/18 04:26:25;;;;;;;160.67;152.17;;;10.00;99.90;;;;;;6209017;23;20613;-81
2021/05/18 04:53:17;;;;;;;159.00;150.30;;;10.10;99.90;;;;;;6214664;23;20493;-81
2021/05/18 05:07:30;;;;;;;153.07;144.83;;;10.40;99.90;;;;;;6166383;23;20408;-84
2021/05/18 05:10:00;;;;;;;149.60;141.73;;;10.30;99.90;;;;;;6226706;23;20455;-83
2021/05/18 05:14:08;;;;;;;151.97;144.13;;;10.50;99.90;;;;;;6226798;23;20404;-83
2021/05/18 05:16:28;;;;;;;142.83;135.77;;;10.50;99.90;;;;;;6215777;23;20420;-82
2021/05/18 05:19:05;;;;;;;141.67;134.90;;;10.60;99.90;;;;;;6224803;23;20460;-83
2021/05/18 05:24:15;;;;;;;131.33;124.27;;;10.70;99.90;;;;;;6242141;22;20269;-85
2021/05/18 05:27:03;;;;;;;135.43;128.93;;;10.90;99.90;;;;;;6256810;23;20430;-84
2021/05/18 05:29:54;;;;;;;116.93;110.93;;;11.10;99.90;;;;;;6256672;22;20886;-85
2021/05/18 05:32:25;;;;;;;116.53;110.57;;;11.10;99.90;;;;;;6256626;23;20438;-84
2021/05/18 05:34:51;;;;;;;116.77;110.77;;;11.10;99.90;;;;;;6254507;23;20405;-84
2021/05/18 05:37:33;;;;;;;102.33;97.20;;;11.20;99.90;;;;;;6256557;23;20399;-83
2021/05/18 05:40:00;;;;;;;99.23;93.83;;;11.10;99.90;;;;;;6255697;23;20431;-84
2021/05/18 05:42:42;;;;;;;104.73;99.20;;;11.30;99.90;;;;;;6256522;23;20728;-83
2021/05/18 05:45:17;;;;;;;99.00;92.93;;;11.50;99.90;;;;;;6246686;23;20736;-83
2021/05/18 05:48:03;;;;;;;93.37;87.80;;;11.50;99.90;;;;;;6256922;23;20945;-83
2021/05/18 05:50:31;;;;;;;79.07;74.10;;;11.60;99.90;;;;;;6255270;23;20400;-83
2021/05/18 05:53:11;;;;;;;78.13;73.17;;;11.80;99.90;;;;;;6256687;22;20753;-83
2021/05/18 05:55:49;;;;;;;71.17;66.93;;;11.60;99.90;;;;;;6245699;23;20867;-83
2021/05/18 06:01:19;;;;;;;68.33;64.33;;;11.50;99.90;;;;;;6179323;23;20445;-84
2021/05/18 06:03:47;;;;;;;66.17;61.83;;;11.50;99.90;;;;;;6254771;22;20490;-82
2021/05/18 06:06:24;;;;;;;72.00;67.70;;;11.40;99.90;;;;;;6256164;23;20407;-83
2021/05/18 06:08:53;;;;;;;78.47;74.27;;;11.50;99.90;;;;;;6255991;23;20894;-81
2021/05/18 06:11:24;;;;;;;84.33;79.53;;;11.50;99.90;;;;;;6245788;23;20407;-83
2021/05/18 06:14:07;;;;;;;84.33;79.73;;;11.70;99.90;;;;;;6246360;23;20400;-85
2021/05/18 06:16:59;;;;;;;92.43;87.33;;;11.90;99.90;;;;;;6246320;23;20485;-85
2021/05/18 06:41:31;;;;;;;57.00;53.00;;;11.30;99.90;;;;;;6244417;23;20438;-84
2021/05/18 06:47:09;;;;;;;65.37;61.07;;;11.40;99.90;;;;;;6254313;23;20394;-83
2021/05/18 06:50:28;;;;;;;74.90;69.90;;;11.40;99.90;;;;;;6242765;23;20410;-82
2021/05/18 06:52:57;;;;;;;73.73;69.13;;;11.50;99.90;;;;;;6243338;22;20435;-84
2021/05/18 06:55:26;;;;;;;71.97;66.93;;;11.70;99.90;;;;;;6245222;23;20919;-82
2021/05/18 06:57:57;;;;;;;76.97;72.30;;;11.90;99.90;;;;;;6245981;23;20396;-84
2021/05/18 07:00:23;;;;;;;67.03;62.03;;;12.10;99.90;;;;;;6245917;23;20489;-84
2021/05/18 07:02:52;;;;;;;56.73;52.80;;;12.20;99.90;;;;;;6245734;22;20435;-84
2021/05/18 07:05:25;;;;;;;45.37;40.80;;;12.30;99.90;;;;;;6254006;23;20736;-84
2021/05/18 07:07:57;;;;;;;29.37;24.10;;;12.30;99.90;;;;;;6246392;23;20403;-84
2021/05/18 07:10:23;;;;;;;27.47;22.63;;;12.30;99.90;;;;;;6246085;23;20809;-84
2021/05/18 07:12:50;;;;;;;33.30;25.33;;;12.40;99.90;;;;;;6245800;23;20427;-84
2021/05/18 07:15:17;;;;;;;39.13;28.30;;;12.40;99.90;;;;;;6245885;23;20485;-83
2021/05/18 07:17:43;;;;;;;28.77;22.00;;;12.50;99.90;;;;;;6255921;23;20494;-84
2021/05/18 07:20:11;;;;;;;36.03;32.33;;;12.60;99.90;;;;;;6244244;23;20467;-84
2021/05/18 07:22:40;;;;;;;30.33;18.20;;;12.90;99.90;;;;;;6245469;23;20486;-84
2021/05/18 07:25:07;;;;;;;26.87;12.30;;;13.10;99.90;;;;;;6245968;23;20399;-84
2021/05/18 07:27:33;;;;;;;32.63;15.17;;;13.30;99.90;;;;;;6245757;23;20407;-84
2021/05/18 07:30:00;;;;;;;26.33;10.30;;;13.30;99.90;;;;;;6245995;23;20431;-84
2021/05/18 07:32:26;;;;;;;27.30;10.03;;;13.00;99.90;;;;;;6245912;23;20399;-83
2021/05/18 07:34:55;;;;;;;27.20;9.40;;;13.00;99.90;;;;;;6244310;23;20396;-84
2021/05/18 07:37:22;;;;;;;28.97;9.90;;;12.90;99.90;;;;;;6245565;23;20903;-84
2021/05/18 07:39:49;;;;;;;26.97;12.13;;;12.90;99.90;;;;;;6255888;23;20427;-84
2021/05/18 07:42:17;;;;;;;34.07;14.87;;;13.10;99.90;;;;;;6245772;23;20400;-84
2021/05/18 07:44:44;;;;;;;27.20;12.90;;;13.50;99.90;;;;;;6245556;23;20871;-84
2021/05/18 07:47:29;;;;;;;38.60;11.40;;;13.90;99.90;;;;;;6255676;23;20403;-84
2021/05/18 07:50:01;;;;;;;28.60;10.33;;;14.20;99.90;;;;;;6254090;23;20433;-84
2021/05/18 08:00:55;;;;;;;27.53;8.50;;;14.20;93.00;;;;;;6245486;23;20767;-84
2021/05/18 08:06:06;;;;;;;33.90;8.60;;;13.80;99.90;;;;;;6245278;23;20399;-84
2021/05/18 08:08:33;;;;;;;27.10;8.23;;;13.90;99.90;;;;;;6255905;23;20416;-84
2021/05/18 08:11:02;;;;;;;27.93;7.97;;;13.70;99.10;;;;;;6245350;23;20395;-85
2021/05/18 08:13:28;;;;;;;31.70;8.77;;;13.70;89.40;;;;;;6255457;23;20841;-84
2021/05/18 08:19:02;;;;;;;24.97;7.50;;;14.20;97.60;;;;;;6257278;23;20450;-84
2021/05/18 10:45:12;;;;;;;;;;;;;;;;;;;;;
2021/05/18 10:48:45;;;;;;;;;;;;;;;;;;;;;
2021/05/18 10:52:06;;;;;;;;;;;;;;;;;;;;;
2021/05/18 10:55:16;;;;;;;;;;;;;;;;;;;;;
2021/05/18 10:58:14;;;;;;;25.77;3.90;;;16.10;16.90;;;;;;6169426;23;20494;-83
2021/05/18 11:00:52;;;;;;;28.90;4.10;;;15.60;19.20;;;;;;6223483;22;20451;-83
2021/05/18 11:03:46;;;;;;;;;;;;;;;;;;;;;
2021/05/18 11:06:25;;;;;;;20.20;3.10;;;14.80;23.30;;;;;;6224039;23;20492;-82
2021/05/18 11:09:09;;;;;;;;;;;;;;;;;;;;;
2021/05/18 11:11:44;;;;;;;22.77;3.70;;;14.60;25.20;;;;;;6171250;23;20423;-83
2021/05/18 11:14:43;;;;;;;18.27;3.13;;;14.70;24.30;;;;;;6223769;23;20464;-83
2021/05/18 11:20:33;;;;;;;23.40;3.73;;;15.80;24.00;;;;;;6171601;22;20447;-82
2021/05/18 11:23:33;;;;;;;;;;;;;;;;;;;;;
2021/05/18 11:43:37;;;;;;;42.57;6.67;;;21.50;4.50;;;;;;6034338;23;20803;-83
2021/05/18 11:46:43;;;;;;;44.40;7.70;;;22.20;2.10;;;;;;6072705;23;20420;-83
2021/05/18 11:59:40;;;;;;;52.50;6.80;;;21.80;1.00;;;;;;6049887;23;20416;-84
2021/05/18 12:02:20;;;;;;;;;;;;;;;;;;;;;
2021/05/18 12:05:00;;;;;;;;;;;;;;;;;;;;;
2021/05/18 12:07:39;;;;;;;40.83;6.13;;;18.70;11.30;;;;;;6255829;23;20394;-83
2021/05/18 12:13:52;;;;;;;40.20;5.53;;;19.30;9.80;;;;;;6243009;23;20486;-83
2021/05/18 12:16:41;;;;;;;37.47;5.80;;;19.00;10.30;;;;;;6245677;23;20957;-83
2021/05/18 12:19:11;;;;;;;36.37;4.90;;;18.70;12.50;;;;;;6233659;22;20426;-82
2021/05/18 12:21:59;;;;;;;35.20;4.90;;;19.10;13.50;;;;;;6246392;23;20773;-82
2021/05/18 12:34:54;;;;;;;;;;;;;;;;;;;;;
2021/05/18 12:41:25;;;;;;;43.43;10.73;;;18.90;1.00;;;;;;6093568;23;20849;-84
2021/05/18 12:44:19;;;;;;;42.57;14.27;;;16.10;7.00;;;;;;6018626;23;20414;-85
2021/05/18 12:46:53;;;;;;;35.87;8.27;;;14.50;20.80;;;;;;6189633;23;20790;-77
2021/05/18 12:49:24;;;;;;;37.03;14.40;;;13.70;99.90;;;;;;6245681;23;20403;-83
2021/05/18 12:52:02;;;;;;;48.10;42.17;;;12.50;99.90;;;;;;6243196;23;20399;-81
2021/05/18 12:54:45;;;;;;;29.77;10.10;;;11.30;99.90;;;;;;6245200;23;20403;-83
2021/05/18 12:57:13;;;;;;;27.57;9.23;;;10.60;99.90;;;;;;6245524;23;20399;-83
2021/05/18 12:59:59;;;;;;;25.17;10.30;;;10.50;99.90;;;;;;6245152;22;20954;-83
2021/05/18 13:02:35;;;;;;;27.47;16.80;;;10.60;99.90;;;;;;6245392;23;20407;-82
2021/05/18 13:08:11;;;;;;;33.17;29.90;;;10.80;99.90;;;;;;6211282;23;20529;-83
2021/05/18 13:10:43;;;;;;;50.67;47.00;;;10.90;99.90;;;;;;6245465;23;20438;-84
2021/05/18 13:13:10;;;;;;;62.43;58.27;;;11.20;99.90;;;;;;6245463;23;20403;-82
2021/05/18 13:15:37;;;;;;;45.30;41.40;;;11.10;99.90;;;;;;6257203;23;20720;-83
2021/05/18 13:18:07;;;;;;;62.10;58.07;;;11.30;99.90;;;;;;6246883;23;20499;-82
2021/05/18 13:20:56;;;;;;;78.67;73.53;;;11.50;99.90;;;;;;6244449;23;20439;-83
2021/05/18 13:33:28;;;;;;;24.13;8.50;;;14.10;99.90;;;;;;6244332;22;20411;-86
2021/05/18 13:36:21;;;;;;;22.17;6.37;;;14.90;99.90;;;;;;6234991;23;20913;-85
2021/05/18 13:39:32;;;;;;;;;;;;;;;;;;;;;
2021/05/18 13:45:25;;;;;;;27.17;4.60;;;17.50;99.90;;;;;;5952133;24;20987;-86
2021/05/18 13:47:55;;;;;;;28.50;4.20;;;16.20;99.90;;;;;;6121725;23;20409;-86
2021/05/18 13:50:22;;;;;;;33.07;4.93;;;15.30;99.90;;;;;;6151699;23;20500;-84
2021/05/18 13:52:56;;;;;;;27.80;4.07;;;14.90;99.90;;;;;;6153546;23;20398;-84
2021/05/18 13:55:40;;;;;;;;;;;;;;;;;;;;;
2021/05/18 13:58:22;;;;;;;26.20;4.40;;;14.00;99.70;;;;;;6245897;23;20403;-85
2021/05/18 14:00:49;;;;;;;24.97;5.00;;;13.80;99.90;;;;;;6256470;22;20435;-84
2021/05/18 14:03:15;;;;;;;24.40;5.17;;;13.50;99.90;;;;;;6246640;23;20438;-83
2021/05/18 14:05:41;;;;;;;23.10;4.17;;;13.50;99.90;;;;;;6244526;23;20408;-84
2021/05/18 14:08:22;;;;;;;23.40;5.00;;;13.50;99.90;;;;;;6246100;23;20435;-84
2021/05/18 14:10:49;;;;;;;23.33;5.13;;;13.70;99.90;;;;;;6245849;23;20435;-82
2021/05/18 14:13:16;;;;;;;22.87;5.37;;;13.70;99.90;;;;;;6246029;23;20557;-83
2021/05/18 14:15:42;;;;;;;24.30;5.40;;;13.70;99.90;;;;;;6256378;22;21143;-83
2021/05/18 14:18:10;;;;;;;26.80;7.20;;;13.70;99.90;;;;;;6245975;23;20446;-83
2021/05/18 14:20:37;;;;;;;27.57;8.10;;;13.70;99.90;;;;;;6244074;23;20469;-83
2021/05/18 14:23:04;;;;;;;23.40;5.53;;;13.60;99.90;;;;;;6256391;23;20415;-83
2021/05/18 14:25:30;;;;;;;23.73;7.55;;;13.50;99.90;;;;;;6245413;23;20412;-84
2021/05/18 14:28:01;;;;;;;23.10;6.33;;;13.40;99.90;;;;;;6246072;23;20156;-85
2021/05/18 14:30:28;;;;;;;25.17;5.77;;;13.60;99.90;;;;;;6246072;23;20477;-84
2021/05/18 14:32:54;;;;;;;21.13;5.20;;;13.40;99.90;;;;;;6256539;23;20428;-83
2021/05/18 14:39:22;;;;;;;;;;;;;;;;;;;;;
2021/05/18 15:08:07;;;;;;;28.50;5.77;;;18.40;12.30;;;;;;5913493;23;20449;-85
2021/05/18 15:14:39;;;;;;;;;;;;;;;;;;;;;
2021/05/18 15:17:46;;;;;;;;;;;;;;;;;;;;;
2021/05/18 15:20:22;;;;;;;26.53;4.80;;;16.10;20.50;;;;;;6243404;23;20430;-85
2021/05/18 15:22:48;;;;;;;29.73;7.30;;;15.50;35.70;;;;;;6245636;23;20395;-83
2021/05/18 15:25:25;;;;;;;25.30;5.20;;;14.80;66.30;;;;;;6256695;22;20411;-84
2021/05/18 15:27:52;;;;;;;25.20;6.00;;;14.10;74.10;;;;;;6257829;23;20417;-83
2021/05/18 15:30:20;;;;;;;25.40;6.03;;;13.30;99.90;;;;;;6258259;23;20736;-84
2021/05/18 15:32:46;;;;;;;24.83;6.53;;;13.40;99.90;;;;;;6248006;23;20399;-83
2021/05/18 15:35:13;;;;;;;24.07;7.17;;;13.10;99.90;;;;;;6246395;23;20427;-84
2021/05/18 15:37:43;;;;;;;24.03;7.47;;;13.00;99.90;;;;;;6247898;23;20442;-83
2021/05/18 15:40:18;;;;;;;24.25;8.40;;;12.70;99.90;;;;;;6246135;23;20419;-84
2021/05/18 15:43:01;;;;;;;24.70;9.50;;;12.50;99.90;;;;;;6247298;23;20156;-84
2021/05/18 15:45:29;;;;;;;27.97;9.00;;;12.50;99.90;;;;;;6247801;23;20476;-83
2021/05/18 15:47:56;;;;;;;24.80;10.17;;;12.70;99.90;;;;;;6257728;23;20407;-83
2021/05/18 15:50:22;;;;;;;24.40;8.17;;;12.90;99.90;;;;;;6245721;23;20486;-83
2021/05/18 15:52:48;;;;;;;24.90;9.50;;;13.10;99.90;;;;;;6247324;22;20569;-83
2021/05/18 15:55:15;;;;;;;25.17;9.60;;;13.20;99.90;;;;;;6247521;23;20486;-82
2021/05/18 15:57:41;;;;;;;23.77;7.57;;;13.30;99.90;;;;;;6257858;23;20948;-83
2021/05/18 16:00:08;;;;;;;25.40;8.90;;;13.40;99.90;;;;;;6247136;23;20392;-83
2021/05/18 16:02:35;;;;;;;24.03;10.17;;;13.70;99.90;;;;;;6247398;23;20446;-83
2021/05/18 16:05:02;;;;;;;26.13;10.30;;;13.80;99.90;;;;;;6256063;23;20529;-83
2021/05/18 16:07:28;;;;;;;26.50;12.53;;;13.90;99.90;;;;;;6247101;23;20438;-83
2021/05/18 16:09:55;;;;;;;22.30;7.53;;;14.10;99.90;;;;;;6257448;22;20404;-83
2021/05/18 16:12:21;;;;;;;21.43;5.80;;;14.50;99.90;;;;;;6247413;23;20426;-83
2021/05/18 16:14:48;;;;;;;19.27;4.00;;;14.70;99.90;;;;;;6247218;23;20403;-82
2021/05/18 16:17:20;;;;;;;19.50;4.40;;;14.80;75.00;;;;;;6247529;23;20403;-81
2021/05/18 16:19:47;;;;;;;21.00;3.83;;;15.70;55.30;;;;;;6245813;23;20446;-81
2021/05/18 16:22:15;;;;;;;20.70;3.40;;;16.60;44.10;;;;;;6247035;23;20508;-82
2021/05/18 16:24:44;;;;;;;22.00;4.00;;;16.90;32.40;;;;;;6246898;23;20901;-82
2021/05/18 16:27:14;;;;;;;22.60;3.57;;;17.30;28.20;;;;;;6247496;23;20406;-82
2021/05/18 16:29:41;;;;;;;22.97;3.50;;;17.30;26.80;;;;;;6247097;23;20426;-82
2021/05/18 16:32:07;;;;;;;23.43;3.40;;;17.90;29.00;;;;;;6257281;23;20489;-83
2021/05/18 16:34:39;;;;;;;24.33;3.03;;;18.00;25.50;;;;;;6256080;23;20415;-83
2021/05/18 16:37:09;;;;;;;25.07;3.00;;;18.60;19.70;;;;;;6246423;23;20456;-85
2021/05/18 16:39:36;;;;;;;27.03;2.97;;;18.70;20.60;;;;;;6257326;23;20474;-86
2021/05/18 16:42:02;;;;;;;26.33;3.60;;;18.50;15.80;;;;;;6256573;23;20794;-85
2021/05/18 16:44:30;;;;;;;27.47;3.50;;;17.60;18.80;;;;;;6257264;23;20403;-85
2021/05/18 16:46:56;;;;;;;28.00;3.47;;;18.10;19.50;;;;;;6257142;23;20494;-84
2021/05/18 16:49:22;;;;;;;26.27;3.40;;;18.50;22.50;;;;;;6255939;23;20764;-84
2021/05/18 16:51:49;;;;;;;27.17;3.70;;;18.10;28.60;;;;;;6247107;22;20759;-83
2021/05/18 16:54:17;;;;;;;26.70;3.67;;;17.80;24.60;;;;;;6246793;23;20424;-82
2021/05/18 16:56:45;;;;;;;26.13;3.73;;;16.70;34.60;;;;;;6257406;23;20415;-82
2021/05/18 16:59:12;;;;;;;24.90;4.17;;;15.80;54.10;;;;;;6246854;23;20403;-84
2021/05/18 17:01:39;;;;;;;24.40;4.73;;;15.40;68.80;;;;;;6256388;23;20768;-84
2021/05/18 17:04:05;;;;;;;22.27;3.87;;;16.30;74.80;;;;;;6245272;23;20450;-82
2021/05/18 17:06:32;;;;;;;24.57;5.10;;;18.40;65.00;;;;;;6246795;23;20403;-84
2021/05/18 17:08:58;;;;;;;28.73;5.70;;;17.30;59.40;;;;;;6246630;23;20431;-82
2021/05/18 17:11:28;;;;;;;27.10;4.70;;;16.50;66.50;;;;;;6246978;23;20411;-80
2021/05/18 17:13:55;;;;;;;22.67;4.83;;;15.80;52.90;;;;;;6246953;23;20434;-81
2021/05/18 17:16:21;;;;;;;23.10;5.00;;;15.10;67.50;;;;;;6247030;23;20403;-82
2021/05/18 17:18:47;;;;;;;23.90;5.10;;;14.80;91.30;;;;;;6246840;23;20473;-82
2021/05/18 17:21:14;;;;;;;25.10;5.40;;;14.40;96.20;;;;;;6245835;23;20756;-83
2021/05/18 17:23:40;;;;;;;24.07;6.37;;;14.10;96.30;;;;;;6246893;23;20431;-84
2021/05/18 17:26:10;;;;;;;23.40;6.20;;;13.90;99.90;;;;;;6256670;23;20404;-84
2021/05/18 17:28:40;;;;;;;24.80;7.67;;;13.90;99.90;;;;;;6246879;23;20461;-82
2021/05/18 17:31:14;;;;;;;29.53;7.73;;;14.50;99.90;;;;;;6246648;23;20446;-83
2021/05/18 17:33:43;;;;;;;23.93;9.57;;;15.90;99.90;;;;;;6256755;23;20410;-83
2021/05/18 17:36:11;;;;;;;23.50;9.40;;;17.10;97.80;;;;;;6254731;23;20434;-83
2021/05/18 17:38:37;;;;;;;24.57;6.90;;;18.30;74.40;;;;;;6256500;23;20415;-82
2021/05/18 17:41:07;;;;;;;25.10;6.77;;;18.30;60.80;;;;;;6256412;23;20458;-84
2021/05/18 17:43:37;;;;;;;23.50;6.27;;;17.90;59.90;;;;;;6246842;23;20731;-83
2021/05/18 17:46:07;;;;;;;27.13;6.97;;;16.90;65.80;;;;;;6246293;23;20442;-85
2021/05/18 17:48:35;;;;;;;25.70;6.80;;;17.60;67.90;;;;;;6253208;23;20407;-84
2021/05/18 17:51:03;;;;;;;22.87;5.37;;;17.50;69.20;;;;;;6243716;22;20458;-83
2021/05/18 17:53:30;;;;;;;22.37;4.37;;;16.00;69.80;;;;;;6244082;23;20445;-83
2021/05/18 17:55:56;;;;;;;27.30;5.30;;;15.00;85.10;;;;;;6254617;23;20879;-84
2021/05/18 17:58:22;;;;;;;23.60;5.70;;;15.00;78.20;;;;;;6254573;23;20415;-83
2021/05/18 18:00:49;;;;;;;23.17;5.20;;;15.10;90.00;;;;;;6254684;23;20759;-83
2021/05/18 18:03:18;;;;;;;28.50;7.20;;;15.20;83.00;;;;;;6254708;23;20410;-83
2021/05/18 18:05:44;;;;;;;24.40;6.37;;;14.40;96.80;;;;;;6254042;23;20705;-82
2021/05/18 18:08:11;;;;;;;26.33;8.50;;;14.10;94.70;;;;;;6244505;23;20477;-83
2021/05/18 18:10:46;;;;;;;25.20;7.00;;;13.90;99.90;;;;;;6244464;23;20426;-83
2021/05/18 18:13:13;;;;;;;21.00;6.07;;;14.10;99.90;;;;;;6244777;23;20406;-83
2021/05/18 18:15:39;;;;;;;21.83;6.37;;;13.60;99.90;;;;;;6254750;23;20402;-84
2021/05/18 18:18:06;;;;;;;22.73;6.83;;;13.20;99.90;;;;;;6245122;23;20400;-83
2021/05/18 18:20:33;;;;;;;24.10;7.97;;;12.80;99.90;;;;;;6253280;23;20423;-84
2021/05/18 18:23:00;;;;;;;22.67;8.07;;;12.50;99.90;;;;;;6254872;23;20482;-84
2021/05/18 18:25:26;;;;;;;22.13;9.50;;;12.20;99.90;;;;;;6254426;22;20526;-82
2021/05/18 18:27:52;;;;;;;24.17;11.93;;;12.00;99.90;;;;;;6254675;23;20753;-84
2021/05/18 18:30:21;;;;;;;24.27;11.90;;;11.90;99.90;;;;;;6244683;23;20490;-82
2021/05/18 18:32:47;;;;;;;22.40;14.07;;;11.70;99.90;;;;;;6243320;23;20419;-83
2021/05/18 18:35:14;;;;;;;22.17;16.77;;;11.80;99.90;;;;;;6243495;23;20400;-83
2021/05/18 18:37:43;;;;;;;23.63;18.50;;;11.80;99.90;;;;;;6254591;23;20537;-83
2021/05/18 18:40:12;;;;;;;25.30;22.60;;;11.80;99.90;;;;;;6254594;23;20906;-84
2021/05/18 18:42:40;;;;;;;32.23;29.00;;;11.80;99.90;;;;;;6244716;23;20404;-84
2021/05/18 18:45:11;;;;;;;42.77;39.37;;;11.80;99.90;;;;;;6254692;23;20415;-83
2021/05/18 18:47:40;;;;;;;53.00;49.00;;;12.00;99.90;;;;;;6244187;23;20867;-84
2021/05/18 18:50:10;;;;;;;58.67;54.57;;;12.10;99.90;;;;;;6252927;22;20798;-84
2021/05/18 18:52:45;;;;;;;61.33;57.13;;;13.00;99.90;;;;;;6254415;23;20743;-84
2021/05/18 18:55:15;;;;;;;48.33;44.63;;;13.30;99.90;;;;;;6254490;23;20414;-83
2021/05/18 18:57:42;;;;;;;38.03;34.53;;;13.20;99.90;;;;;;6245371;23;20396;-82
2021/05/18 19:00:17;;;;;;;28.37;24.80;;;12.80;99.90;;;;;;6255607;23;20406;-82
2021/05/18 19:02:46;;;;;;;29.87;23.63;;;12.80;99.90;;;;;;6246173;23;20399;-83
2021/05/18 19:05:22;;;;;;;28.63;24.13;;;12.60;99.90;;;;;;6254025;23;20406;-82
2021/05/18 19:07:54;;;;;;;30.30;27.50;;;12.50;99.90;;;;;;6245592;23;20526;-84
2021/05/18 19:10:27;;;;;;;36.50;32.97;;;12.40;99.90;;;;;;6245883;23;20395;-83
2021/05/18 19:12:53;;;;;;;39.10;35.70;;;12.30;99.90;;;;;;6245481;23;20887;-83
2021/05/18 19:15:20;;;;;;;44.63;41.33;;;12.00;99.90;;;;;;6245876;23;20395;-83
2021/05/18 19:17:46;;;;;;;51.87;47.97;;;11.70;99.90;;;;;;6245752;23;20399;-83
2021/05/18 19:20:14;;;;;;;59.07;55.03;;;11.60;99.90;;;;;;6254642;22;20699;-83
2021/05/18 19:22:41;;;;;;;65.03;60.57;;;11.20;99.90;;;;;;6245365;23;20438;-82
2021/05/18 19:25:09;;;;;;;75.43;70.77;;;11.10;99.90;;;;;;6255861;23;20460;-83
2021/05/18 19:27:40;;;;;;;84.07;78.97;;;11.00;99.90;;;;;;6245791;23;20403;-83
2021/05/18 19:30:09;;;;;;;91.23;85.83;;;10.90;99.90;;;;;;6256045;23;20446;-83
2021/05/18 19:32:36;;;;;;;100.30;94.57;;;10.90;99.90;;;;;;6255959;22;20473;-82
2021/05/18 19:35:05;;;;;;;113.47;107.30;;;10.80;99.90;;;;;;6254074;23;20937;-82
2021/05/18 19:37:37;;;;;;;116.07;109.57;;;10.80;99.90;;;;;;6255866;23;20461;-82
2021/05/18 19:43:05;;;;;;;119.83;113.40;;;10.50;99.90;;;;;;6255769;23;20453;-83
2021/05/18 19:48:14;;;;;;;124.90;117.30;;;10.30;99.90;;;;;;6242328;22;20399;-81
2021/05/18 19:50:42;;;;;;;135.43;127.93;;;10.20;99.90;;;;;;6244394;22;20438;-82
2021/05/18 19:53:12;;;;;;;150.23;141.53;;;10.00;99.90;;;;;;6177640;23;20498;-82
2021/05/18 19:55:42;;;;;;;152.17;144.13;;;10.00;99.90;;;;;;6245140;23;20965;-81
2021/05/18 19:58:21;;;;;;;152.23;144.03;;;9.90;99.90;;;;;;6255881;23;20917;-81